createdAt,value
2022-12-23T00:02:11.875Z,71.80
2022-12-23T00:04:42.789Z,71.61
2022-12-23T00:07:13.440Z,71.32
2022-12-23T00:09:44.131Z,71.16
2022-12-23T00:12:31.551Z,71.45
2022-12-23T00:15:08.158Z,71.29
2022-12-23T00:17:39.464Z,71.27
2022-12-23T00:20:11.697Z,71.13
2022-12-23T00:22:59.942Z,71.07
2022-12-23T00:25:44.918Z,71.02
2022-12-23T00:28:16.324Z,71.01
2022-12-23T00:30:48.116Z,71.04
2022-12-23T00:33:19.529Z,70.96
2022-12-23T00:35:50.334Z,71.10
2022-12-23T00:38:41.574Z,71.15
2022-12-23T00:41:30.091Z,71.19
2022-12-23T00:44:00.881Z,71.34
2022-12-23T00:46:31.798Z,71.23
2022-12-23T00:49:20.495Z,71.49
2022-12-23T00:51:51.227Z,71.57
2022-12-23T00:54:22.085Z,71.50
2022-12-23T00:56:52.899Z,71.50
2022-12-23T00:59:23.656Z,71.63
2022-12-23T01:02:12.276Z,71.49
2022-12-23T01:05:00.763Z,71.74
2022-12-23T01:07:31.741Z,71.72
2022-12-23T01:10:02.488Z,71.61
2022-12-23T01:12:33.207Z,71.64
2022-12-23T01:15:03.912Z,71.79
2022-12-23T01:17:36.706Z,71.89
2022-12-23T01:20:08.566Z,71.76
2022-12-23T01:22:39.316Z,71.69
2022-12-23T01:25:10.794Z,71.63
2022-12-23T01:27:41.491Z,71.22
2022-12-23T01:30:12.788Z,71.56
2022-12-23T01:32:43.586Z,71.71
2022-12-23T01:35:14.423Z,71.58
2022-12-23T01:37:45.242Z,71.36
2022-12-23T01:40:16.231Z,71.58
2022-12-23T01:42:47.541Z,71.72
2022-12-23T01:45:19.886Z,71.61
2022-12-23T01:47:52.765Z,71.87
2022-12-23T01:50:24.591Z,72.04
2022-12-23T01:53:00.536Z,71.94
2022-12-23T01:55:38.754Z,71.85
2022-12-23T01:58:11.963Z,71.92
2022-12-23T02:01:00.481Z,71.85
2022-12-23T02:03:43.811Z,71.80
2022-12-23T02:06:34.662Z,72.10
2022-12-23T02:09:18.219Z,72.10
2022-12-23T02:12:05.224Z,71.97
2022-12-23T02:15:02.266Z,72.24
2022-12-23T02:17:33.483Z,72.15
2022-12-23T02:20:11.138Z,72.28
2022-12-23T02:22:47.393Z,72.09
2022-12-23T02:25:22.969Z,72.27
2022-12-23T02:27:58.226Z,72.04
2022-12-23T02:30:33.736Z,71.94
2022-12-23T02:33:19.834Z,71.83
2022-12-23T02:35:53.338Z,71.85
2022-12-23T02:38:25.307Z,71.48
2022-12-23T02:40:57.655Z,71.61
2022-12-23T02:43:30.384Z,71.69
2022-12-23T02:46:02.227Z,71.65
2022-12-23T02:48:33.582Z,71.72
2022-12-23T02:51:04.462Z,71.91
2022-12-23T02:53:35.592Z,72.11
2022-12-23T02:56:06.824Z,72.02
2022-12-23T02:58:38.922Z,72.13
2022-12-23T03:01:09.781Z,72.19
2022-12-23T03:03:40.684Z,72.20
2022-12-23T03:06:15.238Z,72.11
2022-12-23T03:08:45.893Z,71.96
2022-12-23T03:11:16.863Z,71.97
2022-12-23T03:14:05.406Z,71.57
2022-12-23T03:16:37.635Z,71.74
2022-12-23T03:19:11.812Z,71.98
2022-12-23T03:21:43.866Z,72.16
2022-12-23T03:24:18.968Z,71.78
2022-12-23T03:26:51.302Z,71.91
2022-12-23T03:29:22.421Z,71.89
2022-12-23T03:31:54.585Z,71.74
2022-12-23T03:34:26.320Z,71.91
2022-12-23T03:36:58.009Z,71.89
2022-12-23T03:39:29.767Z,71.45
2022-12-23T03:42:01.497Z,71.73
2022-12-23T03:44:33.407Z,71.73
2022-12-23T03:47:04.951Z,71.97
2022-12-23T03:49:36.663Z,72.03
2022-12-23T03:52:07.859Z,71.85
2022-12-23T03:54:39.783Z,71.80
2022-12-23T03:57:10.529Z,71.77
2022-12-23T03:59:42.385Z,71.88
2022-12-23T04:02:15.430Z,71.60
2022-12-23T04:04:50.869Z,71.75
2022-12-23T04:07:22.832Z,71.93
2022-12-23T04:09:53.880Z,71.96
2022-12-23T04:12:24.720Z,71.84
2022-12-23T04:14:55.627Z,71.99
2022-12-23T04:17:26.357Z,72.04
2022-12-23T04:19:56.976Z,72.03
2022-12-23T04:22:27.702Z,71.86
2022-12-23T04:24:58.479Z,71.96
2022-12-23T04:27:29.341Z,72.02
2022-12-23T04:30:00.134Z,72.03
2022-12-23T04:32:30.992Z,72.15
2022-12-23T04:35:01.800Z,72.07
2022-12-23T04:37:32.455Z,71.84
2022-12-23T04:40:03.346Z,71.85
2022-12-23T04:42:34.195Z,71.96
2022-12-23T04:45:05.077Z,72.12
2022-12-23T04:47:35.894Z,72.06
2022-12-23T04:50:07.408Z,72.24
2022-12-23T04:52:38.153Z,72.04
2022-12-23T04:55:09.757Z,71.95
2022-12-23T04:57:40.659Z,71.82
2022-12-23T05:00:12.302Z,71.82
2022-12-23T05:02:43.311Z,71.60
2022-12-23T05:05:14.273Z,71.89
2022-12-23T05:07:44.964Z,71.73
2022-12-23T05:10:15.711Z,71.97
2022-12-23T05:12:46.501Z,71.97
2022-12-23T05:15:17.295Z,71.85
2022-12-23T05:17:48.068Z,71.63
2022-12-23T05:20:18.837Z,71.81
2022-12-23T05:22:49.507Z,71.93
2022-12-23T05:25:20.220Z,71.69
2022-12-23T05:27:50.880Z,71.86
2022-12-23T05:30:21.712Z,71.63
2022-12-23T05:32:55.564Z,71.65
2022-12-23T05:35:26.707Z,71.88
2022-12-23T05:37:57.857Z,72.23
2022-12-23T05:40:32.419Z,71.88
2022-12-23T05:43:04.262Z,71.97
2022-12-23T05:45:37.594Z,71.91
2022-12-23T05:48:08.540Z,71.98
2022-12-23T05:50:39.635Z,71.94
2022-12-23T05:53:10.557Z,72.20
2022-12-23T05:55:41.399Z,72.07
2022-12-23T05:58:12.243Z,72.25
2022-12-23T06:00:43.025Z,72.09
2022-12-23T06:03:13.942Z,72.34
2022-12-23T06:05:44.707Z,72.27
2022-12-23T06:08:15.756Z,72.19
2022-12-23T06:10:46.590Z,72.04
2022-12-23T06:13:17.242Z,72.07
2022-12-23T06:15:48.163Z,72.12
2022-12-23T06:18:18.925Z,72.18
2022-12-23T06:20:49.733Z,72.29
2022-12-23T06:23:20.439Z,72.15
2022-12-23T06:25:51.045Z,72.11
2022-12-23T06:28:21.904Z,72.10
2022-12-23T06:30:55.120Z,72.22
2022-12-23T06:33:26.391Z,72.15
2022-12-23T06:35:57.347Z,71.91
2022-12-23T06:38:28.124Z,71.67
2022-12-23T06:40:58.978Z,71.77
2022-12-23T06:43:29.763Z,72.07
2022-12-23T06:46:00.653Z,72.13
2022-12-23T06:48:31.568Z,72.18
2022-12-23T06:51:02.454Z,72.15
2022-12-23T06:53:33.307Z,72.28
2022-12-23T06:56:04.969Z,72.13
2022-12-23T06:58:35.755Z,72.23
2022-12-23T07:01:09.201Z,72.25
2022-12-23T07:03:41.225Z,71.99
2022-12-23T07:06:12.667Z,72.19
2022-12-23T07:08:43.698Z,72.23
2022-12-23T07:11:14.522Z,72.15
2022-12-23T07:13:45.380Z,72.22
2022-12-23T07:16:16.273Z,72.30
2022-12-23T07:18:47.269Z,72.30
2022-12-23T07:21:26.751Z,72.12
2022-12-23T07:24:00.353Z,71.97
2022-12-23T07:26:31.336Z,71.79
2022-12-23T07:29:02.399Z,72.16
2022-12-23T07:31:33.368Z,71.94
2022-12-23T07:34:04.597Z,71.92
2022-12-23T07:36:37.127Z,72.00
2022-12-23T07:39:08.154Z,71.87
2022-12-23T07:41:39.124Z,71.75
2022-12-23T07:44:10.344Z,71.80
2022-12-23T07:46:41.513Z,71.79
2022-12-23T07:49:12.561Z,71.86
2022-12-23T07:51:43.515Z,71.85
2022-12-23T07:54:15.101Z,71.89
2022-12-23T07:56:45.856Z,71.67
2022-12-23T07:59:16.667Z,72.03
2022-12-23T08:01:47.495Z,71.93
2022-12-23T08:04:18.427Z,71.76
2022-12-23T08:06:49.349Z,71.80
2022-12-23T08:09:20.164Z,71.76
2022-12-23T08:11:51.309Z,71.93
2022-12-23T08:14:22.025Z,72.00
2022-12-23T08:16:52.754Z,71.98
2022-12-23T08:19:23.411Z,71.94
2022-12-23T08:21:54.206Z,71.96
2022-12-23T08:24:24.836Z,71.80
2022-12-23T08:26:56.029Z,71.84
2022-12-23T08:29:29.948Z,71.80
2022-12-23T08:32:05.035Z,71.92
2022-12-23T08:34:35.687Z,71.51
2022-12-23T08:37:06.735Z,71.46
2022-12-23T08:39:37.421Z,71.55
2022-12-23T08:42:08.296Z,71.48
2022-12-23T08:44:39.032Z,71.77
2022-12-23T08:47:09.854Z,71.62
2022-12-23T08:49:40.665Z,71.70
2022-12-23T08:52:11.628Z,71.54
2022-12-23T08:54:42.369Z,71.43
2022-12-23T08:57:13.043Z,71.69
2022-12-23T08:59:43.757Z,71.08
2022-12-23T09:02:14.683Z,71.49
2022-12-23T09:04:45.690Z,71.50
2022-12-23T09:07:16.550Z,71.36
2022-12-23T09:09:47.373Z,71.41
2022-12-23T09:12:18.163Z,71.17
2022-12-23T09:14:48.970Z,71.12
2022-12-23T09:17:20.130Z,71.07
2022-12-23T09:19:53.218Z,71.04
2022-12-23T09:22:24.280Z,71.20
2022-12-23T09:24:58.638Z,71.24
2022-12-23T09:27:34.005Z,71.35
2022-12-23T09:30:04.983Z,71.22
2022-12-23T09:32:35.870Z,71.54
2022-12-23T09:35:07.306Z,71.51
2022-12-23T09:37:38.177Z,71.46
2022-12-23T09:40:11.285Z,71.50
2022-12-23T09:42:54.814Z,71.22
2022-12-23T09:45:40.107Z,71.35
2022-12-23T09:48:12.857Z,71.14
2022-12-23T09:50:44.013Z,71.28
2022-12-23T09:53:16.088Z,70.74
2022-12-23T09:55:47.577Z,71.13
2022-12-23T09:58:21.123Z,71.24
2022-12-23T10:00:56.446Z,71.05
2022-12-23T10:03:27.985Z,70.92
2022-12-23T10:06:01.318Z,70.85
2022-12-23T10:08:33.419Z,71.20
2022-12-23T10:11:06.251Z,71.17
2022-12-23T10:13:38.273Z,71.21
2022-12-23T10:16:10.127Z,70.84
2022-12-23T10:18:49.404Z,71.26
2022-12-23T10:21:22.085Z,71.28
2022-12-23T10:23:54.526Z,71.21
2022-12-23T10:26:26.334Z,70.91
2022-12-23T10:29:02.452Z,70.54
2022-12-23T10:31:41.303Z,70.76
2022-12-23T10:34:16.959Z,71.05
2022-12-23T10:36:50.243Z,70.81
2022-12-23T10:39:24.531Z,71.08
2022-12-23T10:41:59.833Z,70.83
2022-12-23T10:44:34.773Z,70.42
2022-12-23T10:47:07.301Z,70.32
2022-12-23T10:49:42.067Z,70.38
2022-12-23T10:52:14.508Z,70.44
2022-12-23T10:54:45.598Z,70.55
2022-12-23T10:57:16.748Z,70.53
2022-12-23T10:59:47.582Z,70.67
2022-12-23T11:02:31.991Z,70.63
2022-12-23T11:05:02.950Z,70.45
2022-12-23T11:07:49.150Z,70.71
2022-12-23T11:10:21.063Z,70.73
2022-12-23T11:12:52.463Z,70.56
2022-12-23T11:15:30.591Z,70.43
2022-12-23T11:18:02.443Z,70.45
2022-12-23T11:20:33.320Z,70.31
2022-12-23T11:23:04.468Z,70.30
2022-12-23T11:25:36.696Z,70.35
2022-12-23T11:28:13.475Z,70.51
2022-12-23T11:30:55.509Z,70.31
2022-12-23T11:33:27.946Z,70.31
2022-12-23T11:36:03.545Z,70.16
2022-12-23T11:38:34.401Z,70.13
2022-12-23T11:41:06.081Z,70.19
2022-12-23T11:43:36.970Z,69.98
2022-12-23T11:46:18.626Z,69.87
2022-12-23T11:48:54.586Z,69.85
2022-12-23T11:51:28.168Z,69.68
2022-12-23T11:54:02.663Z,69.75
2022-12-23T11:56:37.053Z,69.82
2022-12-23T11:59:08.771Z,69.93
2022-12-23T12:01:40.059Z,70.01
2022-12-23T12:04:17.902Z,70.01
2022-12-23T12:06:55.864Z,70.16
2022-12-23T12:09:27.327Z,70.23
2022-12-23T12:11:59.989Z,69.67
2022-12-23T12:14:31.483Z,69.65
2022-12-23T12:17:04.889Z,69.61
2022-12-23T12:19:37.025Z,69.40
2022-12-23T12:22:10.680Z,69.72
2022-12-23T12:24:41.864Z,69.48
2022-12-23T12:27:12.718Z,69.55
2022-12-23T12:29:45.319Z,69.26
2022-12-23T12:32:18.328Z,69.13
2022-12-23T12:34:53.087Z,69.26
2022-12-23T12:37:26.323Z,69.35
2022-12-23T12:39:57.648Z,69.43
2022-12-23T12:42:29.485Z,69.39
2022-12-23T12:45:04.498Z,69.27
2022-12-23T12:47:59.939Z,69.51
2022-12-23T12:50:30.639Z,69.38
2022-12-23T12:53:02.784Z,69.33
2022-12-23T12:55:33.942Z,69.24
2022-12-23T12:58:04.719Z,69.36
2022-12-23T13:00:39.321Z,69.25
2022-12-23T13:03:16.728Z,69.38
2022-12-23T13:05:56.678Z,69.42
2022-12-23T13:08:31.575Z,69.08
2022-12-23T13:11:03.453Z,69.25
2022-12-23T13:13:37.086Z,69.06
2022-12-23T13:16:09.629Z,69.30
2022-12-23T13:18:42.829Z,69.13
2022-12-23T13:21:14.671Z,69.21
2022-12-23T13:23:47.384Z,69.03
2022-12-23T13:26:23.129Z,68.96
2022-12-23T13:28:56.197Z,68.98
2022-12-23T13:31:30.184Z,69.03
2022-12-23T13:34:02.192Z,68.93
2022-12-23T13:36:36.167Z,68.90
2022-12-23T13:39:14.647Z,68.81
2022-12-23T13:41:45.422Z,68.69
2022-12-23T13:44:18.902Z,68.69
2022-12-23T13:46:50.982Z,68.72
2022-12-23T13:49:25.254Z,68.63
2022-12-23T13:51:56.601Z,68.62
2022-12-23T13:54:29.314Z,68.86
2022-12-23T13:57:08.135Z,68.99
2022-12-23T13:59:42.643Z,68.99
2022-12-23T14:02:30.508Z,69.15
2022-12-23T14:05:01.426Z,68.81
2022-12-23T14:07:32.978Z,68.72
2022-12-23T14:10:12.969Z,68.68
2022-12-23T14:12:43.677Z,68.83
2022-12-23T14:15:25.474Z,68.66
2022-12-23T14:18:04.329Z,68.67
2022-12-23T14:20:39.583Z,68.71
2022-12-23T14:23:14.687Z,68.56
2022-12-23T14:25:57.499Z,68.60
2022-12-23T14:28:31.920Z,68.36
2022-12-23T14:31:02.712Z,68.48
2022-12-23T14:33:34.617Z,68.54
2022-12-23T14:36:23.049Z,68.31
2022-12-23T14:39:07.341Z,68.28
2022-12-23T14:41:41.436Z,68.32
2022-12-23T14:44:21.089Z,68.38
2022-12-23T14:46:56.704Z,68.27
2022-12-23T14:49:41.345Z,68.43
2022-12-23T14:52:29.554Z,68.63
2022-12-23T14:55:28.295Z,68.62
2022-12-23T14:57:51.198Z,68.62
2022-12-23T15:00:21.875Z,68.63
2022-12-23T15:02:52.697Z,68.18
2022-12-23T15:05:24.861Z,68.41
2022-12-23T15:07:57.121Z,68.47
2022-12-23T15:10:29.186Z,68.29
2022-12-23T15:13:03.007Z,68.37
2022-12-23T15:15:34.659Z,68.10
2022-12-23T15:18:06.207Z,68.30
2022-12-23T15:20:37.028Z,68.28
2022-12-23T15:23:11.156Z,68.26
2022-12-23T15:25:42.454Z,68.28
2022-12-23T15:28:16.418Z,68.11
2022-12-23T15:30:49.690Z,68.38
2022-12-23T15:34:00.722Z,68.13
2022-12-23T15:36:12.866Z,67.89
2022-12-23T15:38:43.896Z,67.97
2022-12-23T15:41:17.027Z,67.97
2022-12-23T15:43:47.778Z,68.21
2022-12-23T15:46:25.129Z,68.35
2022-12-23T15:48:59.651Z,68.29
2022-12-23T15:54:24.450Z,68.09
2022-12-23T15:56:55.122Z,67.95
2022-12-23T15:59:26.977Z,67.93
2022-12-23T16:01:57.820Z,68.08
2022-12-23T16:04:29.609Z,68.00
2022-12-23T16:07:00.851Z,68.21
2022-12-23T16:09:36.403Z,68.16
2022-12-23T16:12:20.167Z,68.25
2022-12-23T16:14:54.177Z,68.49
2022-12-23T16:17:25.454Z,68.43
2022-12-23T16:19:57.527Z,68.54
2022-12-23T16:22:29.535Z,68.61
2022-12-23T16:25:03.232Z,68.38
2022-12-23T16:27:37.958Z,68.23
2022-12-23T16:30:12.870Z,68.49
2022-12-23T16:32:54.804Z,68.53
2022-12-23T16:35:30.052Z,68.19
2022-12-23T16:38:12.261Z,68.37
2022-12-23T16:40:43.357Z,68.55
2022-12-23T16:43:14.212Z,68.24
2022-12-23T16:45:45.354Z,68.40
2022-12-23T16:48:19.465Z,68.21
2022-12-23T16:50:50.415Z,68.36
2022-12-23T16:53:21.149Z,68.06
2022-12-23T16:55:56.842Z,68.10
2022-12-23T16:58:31.413Z,68.34
2022-12-23T17:01:02.352Z,68.19
2022-12-23T17:03:33.839Z,67.99
2022-12-23T17:06:04.824Z,68.31
2022-12-23T17:08:35.618Z,68.07
2022-12-23T17:11:06.610Z,68.50
2022-12-23T17:13:37.343Z,68.63
2022-12-23T17:16:09.828Z,68.32
2022-12-23T17:18:40.804Z,68.50
2022-12-23T17:21:13.273Z,68.36
2022-12-23T17:23:44.213Z,68.01
2022-12-23T17:26:15.156Z,68.36
2022-12-23T17:28:48.642Z,68.29
2022-12-23T17:31:27.445Z,68.05
2022-12-23T17:33:59.915Z,68.02
2022-12-23T17:36:31.156Z,67.98
2022-12-23T17:39:09.193Z,68.32
2022-12-23T17:41:46.666Z,68.34
2022-12-23T17:44:24.198Z,68.26
2022-12-23T17:46:58.956Z,67.96
2022-12-23T17:49:32.871Z,68.44
2022-12-23T17:52:10.053Z,68.28
2022-12-23T17:54:41.268Z,68.39
2022-12-23T17:57:18.200Z,68.37
2022-12-23T17:59:49.520Z,68.36
2022-12-23T18:02:30.919Z,68.10
2022-12-23T18:05:02.273Z,68.52
2022-12-23T18:07:33.154Z,68.41
2022-12-23T18:10:04.096Z,68.75
2022-12-23T18:12:36.403Z,68.60
2022-12-23T18:15:09.305Z,68.72
2022-12-23T18:17:40.074Z,68.70
2022-12-23T18:20:15.522Z,68.61
2022-12-23T18:22:47.023Z,68.58
2022-12-23T18:25:18.545Z,68.59
2022-12-23T18:27:49.500Z,68.80
2022-12-23T18:30:20.638Z,68.50
2022-12-23T18:32:51.769Z,68.66
2022-12-23T18:35:29.947Z,68.41
2022-12-23T18:38:00.980Z,68.56
2022-12-23T18:40:33.098Z,68.39
2022-12-23T18:43:04.326Z,68.58
2022-12-23T18:45:37.094Z,68.78
2022-12-23T18:48:08.355Z,68.92
2022-12-23T18:50:40.273Z,68.89
2022-12-23T18:53:21.298Z,68.83
2022-12-23T18:55:54.913Z,68.63
2022-12-23T18:58:25.990Z,68.57
2022-12-23T19:00:56.960Z,68.45
2022-12-23T19:03:28.859Z,68.59
2022-12-23T19:06:06.624Z,68.55
2022-12-23T19:08:38.252Z,68.59
2022-12-23T19:11:12.601Z,68.58
2022-12-23T19:13:43.490Z,68.70
2022-12-23T19:16:15.589Z,68.63
2022-12-23T19:18:47.070Z,68.64
2022-12-23T19:21:18.227Z,68.65
2022-12-23T19:23:49.148Z,68.84
2022-12-23T19:26:19.989Z,68.86
2022-12-23T19:28:50.760Z,68.83
2022-12-23T19:31:23.330Z,68.84
2022-12-23T19:33:54.219Z,68.98
2022-12-23T19:36:25.308Z,68.97
2022-12-23T19:38:56.581Z,69.17
2022-12-23T19:41:27.320Z,69.26
2022-12-23T19:43:58.376Z,69.12
2022-12-23T19:46:29.187Z,69.06
2022-12-23T19:49:00.039Z,69.13
2022-12-23T19:51:30.749Z,69.00
2022-12-23T19:54:02.167Z,68.93
2022-12-23T19:56:32.928Z,68.76
2022-12-23T19:59:04.182Z,69.13
2022-12-23T20:01:35.055Z,68.85
2022-12-23T20:04:05.835Z,69.46
2022-12-23T20:06:38.415Z,69.12
2022-12-23T20:09:09.994Z,69.39
2022-12-23T20:11:41.268Z,69.15
2022-12-23T20:14:12.271Z,69.12
2022-12-23T20:16:42.947Z,69.10
2022-12-23T20:19:13.741Z,69.12
2022-12-23T20:21:45.496Z,68.99
2022-12-23T20:24:16.940Z,68.74
2022-12-23T20:26:47.697Z,68.78
2022-12-23T20:29:18.405Z,69.01
2022-12-23T20:31:49.140Z,69.16
2022-12-23T20:34:20.050Z,69.16
2022-12-23T20:36:50.952Z,69.17
2022-12-23T20:39:21.915Z,69.11
2022-12-23T20:41:53.437Z,68.91
2022-12-23T20:44:34.518Z,68.96
2022-12-23T20:47:06.829Z,69.15
2022-12-23T20:49:37.870Z,69.13
2022-12-23T20:52:08.675Z,69.21
2022-12-23T20:54:39.674Z,69.06
2022-12-23T20:57:10.488Z,69.10
2022-12-23T20:59:41.242Z,68.93
2022-12-23T21:02:12.967Z,68.93
2022-12-23T21:04:43.736Z,69.21
2022-12-23T21:07:14.383Z,69.31
2022-12-23T21:09:45.190Z,69.26
2022-12-23T21:12:15.870Z,69.32
2022-12-23T21:14:46.599Z,69.15
2022-12-23T21:17:17.255Z,69.02
2022-12-23T21:19:48.063Z,69.02
2022-12-23T21:22:18.961Z,69.26
2022-12-23T21:24:49.850Z,69.31
2022-12-23T21:27:20.677Z,69.24
2022-12-23T21:29:51.417Z,69.18
2022-12-23T21:32:22.066Z,69.39
2022-12-23T21:34:52.869Z,69.32
2022-12-23T21:37:23.616Z,69.36
2022-12-23T21:39:54.364Z,69.25
2022-12-23T21:42:25.153Z,69.34
2022-12-23T21:44:55.829Z,69.40
2022-12-23T21:47:26.577Z,69.52
2022-12-23T21:49:57.260Z,69.47
2022-12-23T21:52:28.092Z,69.12
2022-12-23T21:54:58.826Z,69.04
2022-12-23T21:57:29.673Z,69.10
2022-12-23T22:00:00.453Z,69.30
2022-12-23T22:02:31.177Z,69.30
2022-12-23T22:05:02.051Z,69.18
2022-12-23T22:07:32.776Z,69.41
2022-12-23T22:10:03.507Z,69.68
2022-12-23T22:12:34.403Z,69.64
2022-12-23T22:15:11.280Z,69.68
2022-12-23T22:17:42.478Z,69.66
2022-12-23T22:20:13.475Z,69.55
2022-12-23T22:22:44.354Z,69.56
2022-12-23T22:25:15.142Z,69.56
2022-12-23T22:27:46.495Z,69.30
2022-12-23T22:30:17.488Z,69.41
2022-12-23T22:32:49.579Z,69.36
2022-12-23T22:35:20.261Z,69.48
2022-12-23T22:37:51.052Z,69.30
2022-12-23T22:40:21.791Z,69.29
2022-12-23T22:42:52.577Z,69.20
2022-12-23T22:45:23.389Z,69.38
2022-12-23T22:47:54.485Z,69.40
2022-12-23T22:50:25.335Z,69.10
2022-12-23T22:52:56.080Z,69.23
2022-12-23T22:55:26.886Z,69.18
2022-12-23T22:57:57.650Z,69.27
2022-12-23T23:00:28.409Z,69.02
2022-12-23T23:02:59.225Z,69.00
2022-12-23T23:05:29.957Z,69.17
2022-12-23T23:08:00.851Z,69.16
2022-12-23T23:10:31.635Z,69.19
2022-12-23T23:13:02.484Z,69.26
2022-12-23T23:15:33.276Z,69.32
2022-12-23T23:18:04.100Z,69.23
2022-12-23T23:20:34.918Z,69.17
2022-12-23T23:23:05.629Z,69.25
2022-12-23T23:25:37.180Z,69.21
2022-12-23T23:28:08.031Z,68.98
2022-12-23T23:30:39.331Z,69.01
2022-12-23T23:33:10.385Z,69.13
2022-12-23T23:35:41.116Z,68.90
2022-12-23T23:38:11.892Z,69.06
2022-12-23T23:40:42.599Z,69.00
2022-12-23T23:43:13.355Z,69.21
2022-12-23T23:45:44.076Z,69.04
2022-12-23T23:48:15.058Z,69.27
2022-12-23T23:50:45.931Z,69.14
2022-12-23T23:53:16.724Z,69.17
2022-12-23T23:55:47.666Z,69.12
2022-12-23T23:58:18.409Z,69.15
